sensor_id;sensor_type;location;lat;lon;timestamp;P1;durP1;ratioP1;P2;durP2;ratioP2
59512;SDS011;45330;51.634;5.562;2022-11-15T00:00:07;40.88;;;20.65;;
59512;SDS011;45330;51.634;5.562;2022-11-15T00:02:33;43.42;;;21.58;;
59512;SDS011;45330;51.634;5.562;2022-11-15T00:04:58;42.08;;;22.27;;
59512;SDS011;45330;51.634;5.562;2022-11-15T00:07:23;47.70;;;23.05;;
59512;SDS011;45330;51.634;5.562;2022-11-15T00:09:49;42.33;;;20.90;;
59512;SDS011;45330;51.634;5.562;2022-11-15T00:12:14;43.25;;;22.30;;
59512;SDS011;45330;51.634;5.562;2022-11-15T00:14:40;42.08;;;23.25;;
59512;SDS011;45330;51.634;5.562;2022-11-15T00:17:05;46.35;;;22.45;;
59512;SDS011;45330;51.634;5.562;2022-11-15T00:19:30;42.55;;;22.42;;
59512;SDS011;45330;51.634;5.562;2022-11-15T00:21:56;41.17;;;22.50;;
59512;SDS011;45330;51.634;5.562;2022-11-15T00:24:21;41.47;;;22.73;;
59512;SDS011;45330;51.634;5.562;2022-11-15T00:26:46;43.00;;;23.20;;
59512;SDS011;45330;51.634;5.562;2022-11-15T00:29:12;41.95;;;22.23;;
59512;SDS011;45330;51.634;5.562;2022-11-15T00:31:37;40.05;;;23.27;;
59512;SDS011;45330;51.634;5.562;2022-11-15T00:34:03;42.58;;;23.27;;
59512;SDS011;45330;51.634;5.562;2022-11-15T00:36:28;41.97;;;22.75;;
59512;SDS011;45330;51.634;5.562;2022-11-15T00:38:53;39.25;;;21.65;;
59512;SDS011;45330;51.634;5.562;2022-11-15T00:41:19;40.03;;;21.92;;
59512;SDS011;45330;51.634;5.562;2022-11-15T00:43:44;41.42;;;22.00;;
59512;SDS011;45330;51.634;5.562;2022-11-15T00:46:09;37.88;;;21.30;;
59512;SDS011;45330;51.634;5.562;2022-11-15T00:48:35;38.47;;;21.77;;
59512;SDS011;45330;51.634;5.562;2022-11-15T00:51:01;41.05;;;21.45;;
59512;SDS011;45330;51.634;5.562;2022-11-15T00:53:26;35.40;;;20.38;;
59512;SDS011;45330;51.634;5.562;2022-11-15T00:55:52;38.03;;;21.85;;
59512;SDS011;45330;51.634;5.562;2022-11-15T00:58:18;34.95;;;20.48;;
59512;SDS011;45330;51.634;5.562;2022-11-15T01:00:43;37.20;;;21.08;;
59512;SDS011;45330;51.634;5.562;2022-11-15T01:03:09;40.92;;;21.13;;
59512;SDS011;45330;51.634;5.562;2022-11-15T01:05:36;35.00;;;20.45;;
59512;SDS011;45330;51.634;5.562;2022-11-15T01:08:03;35.88;;;20.25;;
59512;SDS011;45330;51.634;5.562;2022-11-15T01:10:28;35.25;;;20.40;;
59512;SDS011;45330;51.634;5.562;2022-11-15T01:12:54;37.95;;;20.42;;
59512;SDS011;45330;51.634;5.562;2022-11-15T01:15:19;35.95;;;19.60;;
59512;SDS011;45330;51.634;5.562;2022-11-15T01:17:45;37.03;;;20.38;;
59512;SDS011;45330;51.634;5.562;2022-11-15T01:20:10;34.78;;;19.50;;
59512;SDS011;45330;51.634;5.562;2022-11-15T01:22:36;37.22;;;20.75;;
59512;SDS011;45330;51.634;5.562;2022-11-15T01:25:02;36.30;;;20.38;;
59512;SDS011;45330;51.634;5.562;2022-11-15T01:27:27;33.05;;;19.92;;
59512;SDS011;45330;51.634;5.562;2022-11-15T01:29:53;34.92;;;20.55;;
59512;SDS011;45330;51.634;5.562;2022-11-15T01:32:18;35.03;;;20.42;;
59512;SDS011;45330;51.634;5.562;2022-11-15T01:34:44;34.72;;;20.27;;
59512;SDS011;45330;51.634;5.562;2022-11-15T01:37:09;35.45;;;20.17;;
59512;SDS011;45330;51.634;5.562;2022-11-15T01:39:34;35.50;;;20.73;;
59512;SDS011;45330;51.634;5.562;2022-11-15T01:42:00;35.28;;;19.90;;
59512;SDS011;45330;51.634;5.562;2022-11-15T01:44:38;34.10;;;19.95;;
59512;SDS011;45330;51.634;5.562;2022-11-15T01:47:06;34.10;;;19.73;;
59512;SDS011;45330;51.634;5.562;2022-11-15T01:52:24;34.47;;;20.48;;
59512;SDS011;45330;51.634;5.562;2022-11-15T01:54:56;33.20;;;19.45;;
59512;SDS011;45330;51.634;5.562;2022-11-15T01:57:28;35.97;;;21.05;;
59512;SDS011;45330;51.634;5.562;2022-11-15T01:59:54;36.67;;;21.40;;
59512;SDS011;45330;51.634;5.562;2022-11-15T02:02:20;35.60;;;20.08;;
59512;SDS011;45330;51.634;5.562;2022-11-15T02:04:46;35.25;;;20.58;;
59512;SDS011;45330;51.634;5.562;2022-11-15T02:07:13;38.72;;;20.73;;
59512;SDS011;45330;51.634;5.562;2022-11-15T02:09:42;36.75;;;20.10;;
59512;SDS011;45330;51.634;5.562;2022-11-15T02:12:08;35.47;;;19.98;;
59512;SDS011;45330;51.634;5.562;2022-11-15T02:14:36;36.67;;;20.90;;
59512;SDS011;45330;51.634;5.562;2022-11-15T02:33:34;34.83;;;19.38;;
59512;SDS011;45330;51.634;5.562;2022-11-15T02:36:01;36.10;;;21.65;;
59512;SDS011;45330;51.634;5.562;2022-11-15T02:38:56;33.17;;;19.30;;
59512;SDS011;45330;51.634;5.562;2022-11-15T02:41:31;34.83;;;20.98;;
59512;SDS011;45330;51.634;5.562;2022-11-15T02:44:07;35.60;;;20.58;;
59512;SDS011;45330;51.634;5.562;2022-11-15T02:47:00;36.38;;;19.83;;
59512;SDS011;45330;51.634;5.562;2022-11-15T02:49:47;36.60;;;20.80;;
59512;SDS011;45330;51.634;5.562;2022-11-15T02:52:16;39.95;;;21.73;;
59512;SDS011;45330;51.634;5.562;2022-11-15T02:54:42;36.05;;;20.95;;
59512;SDS011;45330;51.634;5.562;2022-11-15T02:57:12;36.55;;;20.90;;
59512;SDS011;45330;51.634;5.562;2022-11-15T03:02:35;37.17;;;20.83;;
59512;SDS011;45330;51.634;5.562;2022-11-15T03:08:05;37.13;;;20.85;;
59512;SDS011;45330;51.634;5.562;2022-11-15T03:10:50;38.28;;;22.13;;
59512;SDS011;45330;51.634;5.562;2022-11-15T03:18:52;38.65;;;21.50;;
59512;SDS011;45330;51.634;5.562;2022-11-15T03:21:40;35.75;;;20.67;;
59512;SDS011;45330;51.634;5.562;2022-11-15T03:24:06;35.28;;;21.73;;
59512;SDS011;45330;51.634;5.562;2022-11-15T03:26:34;37.45;;;21.95;;
59512;SDS011;45330;51.634;5.562;2022-11-15T03:29:06;38.50;;;21.55;;
59512;SDS011;45330;51.634;5.562;2022-11-15T03:31:38;38.25;;;22.70;;
59512;SDS011;45330;51.634;5.562;2022-11-15T03:34:58;39.60;;;22.95;;
59512;SDS011;45330;51.634;5.562;2022-11-15T03:37:04;35.78;;;21.23;;
59512;SDS011;45330;51.634;5.562;2022-11-15T03:39:31;37.83;;;21.92;;
59512;SDS011;45330;51.634;5.562;2022-11-15T03:42:01;34.38;;;21.58;;
59512;SDS011;45330;51.634;5.562;2022-11-15T03:44:50;34.83;;;21.00;;
59512;SDS011;45330;51.634;5.562;2022-11-15T03:47:24;37.30;;;21.63;;
59512;SDS011;45330;51.634;5.562;2022-11-15T03:50:05;36.00;;;21.25;;
59512;SDS011;45330;51.634;5.562;2022-11-15T03:52:34;37.15;;;21.65;;
59512;SDS011;45330;51.634;5.562;2022-11-15T03:55:01;36.58;;;21.58;;
59512;SDS011;45330;51.634;5.562;2022-11-15T03:57:28;38.78;;;22.08;;
59512;SDS011;45330;51.634;5.562;2022-11-15T03:59:54;37.08;;;21.75;;
59512;SDS011;45330;51.634;5.562;2022-11-15T04:02:19;36.22;;;22.42;;
59512;SDS011;45330;51.634;5.562;2022-11-15T04:04:47;37.58;;;22.48;;
59512;SDS011;45330;51.634;5.562;2022-11-15T04:07:13;39.60;;;22.27;;
59512;SDS011;45330;51.634;5.562;2022-11-15T04:09:38;40.33;;;21.75;;
59512;SDS011;45330;51.634;5.562;2022-11-15T04:12:24;38.88;;;22.75;;
59512;SDS011;45330;51.634;5.562;2022-11-15T04:15:01;41.65;;;23.45;;
59512;SDS011;45330;51.634;5.562;2022-11-15T04:17:35;41.53;;;23.67;;
59512;SDS011;45330;51.634;5.562;2022-11-15T04:20:04;41.50;;;24.73;;
59512;SDS011;45330;51.634;5.562;2022-11-15T04:22:57;40.67;;;23.35;;
59512;SDS011;45330;51.634;5.562;2022-11-15T04:28:07;40.33;;;22.73;;
59512;SDS011;45330;51.634;5.562;2022-11-15T04:30:33;41.03;;;22.58;;
59512;SDS011;45330;51.634;5.562;2022-11-15T04:32:58;43.08;;;24.60;;
59512;SDS011;45330;51.634;5.562;2022-11-15T04:35:26;43.13;;;24.63;;
59512;SDS011;45330;51.634;5.562;2022-11-15T04:37:52;42.72;;;23.83;;
59512;SDS011;45330;51.634;5.562;2022-11-15T04:40:18;41.65;;;23.63;;
59512;SDS011;45330;51.634;5.562;2022-11-15T04:42:43;43.15;;;24.90;;
59512;SDS011;45330;51.634;5.562;2022-11-15T04:45:09;45.60;;;24.92;;
59512;SDS011;45330;51.634;5.562;2022-11-15T04:47:34;42.45;;;24.20;;
59512;SDS011;45330;51.634;5.562;2022-11-15T04:50:00;46.05;;;24.50;;
59512;SDS011;45330;51.634;5.562;2022-11-15T04:52:25;47.55;;;25.67;;
59512;SDS011;45330;51.634;5.562;2022-11-15T04:54:50;47.03;;;26.42;;
59512;SDS011;45330;51.634;5.562;2022-11-15T04:57:19;45.13;;;25.40;;
59512;SDS011;45330;51.634;5.562;2022-11-15T04:59:47;43.25;;;24.70;;
59512;SDS011;45330;51.634;5.562;2022-11-15T05:02:13;46.15;;;26.50;;
59512;SDS011;45330;51.634;5.562;2022-11-15T05:04:38;44.22;;;24.77;;
59512;SDS011;45330;51.634;5.562;2022-11-15T05:07:04;46.17;;;25.10;;
59512;SDS011;45330;51.634;5.562;2022-11-15T05:09:29;44.53;;;24.80;;
59512;SDS011;45330;51.634;5.562;2022-11-15T05:11:54;41.03;;;23.88;;
59512;SDS011;45330;51.634;5.562;2022-11-15T05:14:20;43.00;;;24.02;;
59512;SDS011;45330;51.634;5.562;2022-11-15T05:16:45;47.63;;;25.30;;
59512;SDS011;45330;51.634;5.562;2022-11-15T05:19:11;44.00;;;25.08;;
59512;SDS011;45330;51.634;5.562;2022-11-15T05:21:36;43.55;;;25.17;;
59512;SDS011;45330;51.634;5.562;2022-11-15T05:24:02;45.90;;;25.98;;
59512;SDS011;45330;51.634;5.562;2022-11-15T05:26:27;48.70;;;24.10;;
59512;SDS011;45330;51.634;5.562;2022-11-15T05:28:54;45.28;;;24.77;;
59512;SDS011;45330;51.634;5.562;2022-11-15T05:31:20;45.42;;;23.98;;
59512;SDS011;45330;51.634;5.562;2022-11-15T05:33:46;43.35;;;25.10;;
59512;SDS011;45330;51.634;5.562;2022-11-15T05:39:03;45.00;;;24.80;;
59512;SDS011;45330;51.634;5.562;2022-11-15T05:41:52;49.53;;;26.02;;
59512;SDS011;45330;51.634;5.562;2022-11-15T05:44:18;44.42;;;25.58;;
59512;SDS011;45330;51.634;5.562;2022-11-15T05:46:47;44.35;;;24.98;;
59512;SDS011;45330;51.634;5.562;2022-11-15T05:49:16;46.75;;;26.55;;
59512;SDS011;45330;51.634;5.562;2022-11-15T05:51:44;44.83;;;24.92;;
59512;SDS011;45330;51.634;5.562;2022-11-15T05:54:13;46.40;;;25.15;;
59512;SDS011;45330;51.634;5.562;2022-11-15T05:56:40;41.08;;;24.40;;
59512;SDS011;45330;51.634;5.562;2022-11-15T05:59:05;42.65;;;23.63;;
59512;SDS011;45330;51.634;5.562;2022-11-15T06:01:33;42.10;;;24.67;;
59512;SDS011;45330;51.634;5.562;2022-11-15T06:03:58;42.85;;;25.05;;
59512;SDS011;45330;51.634;5.562;2022-11-15T06:06:24;40.42;;;23.63;;
59512;SDS011;45330;51.634;5.562;2022-11-15T06:08:49;45.28;;;22.90;;
59512;SDS011;45330;51.634;5.562;2022-11-15T06:11:14;43.00;;;23.27;;
59512;SDS011;45330;51.634;5.562;2022-11-15T06:13:40;42.35;;;23.63;;
59512;SDS011;45330;51.634;5.562;2022-11-15T06:16:05;40.67;;;23.90;;
59512;SDS011;45330;51.634;5.562;2022-11-15T06:18:31;40.67;;;22.75;;
59512;SDS011;45330;51.634;5.562;2022-11-15T06:20:59;39.33;;;21.75;;
59512;SDS011;45330;51.634;5.562;2022-11-15T06:23:25;40.05;;;22.63;;
59512;SDS011;45330;51.634;5.562;2022-11-15T06:25:50;40.58;;;22.65;;
59512;SDS011;45330;51.634;5.562;2022-11-15T06:28:15;38.38;;;22.48;;
59512;SDS011;45330;51.634;5.562;2022-11-15T06:30:41;35.70;;;20.98;;
59512;SDS011;45330;51.634;5.562;2022-11-15T06:33:06;36.63;;;22.05;;
59512;SDS011;45330;51.634;5.562;2022-11-15T06:35:34;38.85;;;22.48;;
59512;SDS011;45330;51.634;5.562;2022-11-15T06:38:04;41.92;;;22.42;;
59512;SDS011;45330;51.634;5.562;2022-11-15T06:40:32;44.67;;;21.40;;
59512;SDS011;45330;51.634;5.562;2022-11-15T06:42:59;37.95;;;21.00;;
59512;SDS011;45330;51.634;5.562;2022-11-15T06:45:25;41.63;;;22.20;;
59512;SDS011;45330;51.634;5.562;2022-11-15T06:47:50;39.10;;;22.08;;
59512;SDS011;45330;51.634;5.562;2022-11-15T06:50:16;40.08;;;22.83;;
59512;SDS011;45330;51.634;5.562;2022-11-15T06:52:41;39.35;;;21.92;;
59512;SDS011;45330;51.634;5.562;2022-11-15T06:55:07;39.50;;;22.88;;
59512;SDS011;45330;51.634;5.562;2022-11-15T06:57:33;40.13;;;22.58;;
59512;SDS011;45330;51.634;5.562;2022-11-15T06:59:58;38.97;;;22.38;;
59512;SDS011;45330;51.634;5.562;2022-11-15T07:02:24;41.80;;;22.15;;
59512;SDS011;45330;51.634;5.562;2022-11-15T07:04:49;39.50;;;22.15;;
59512;SDS011;45330;51.634;5.562;2022-11-15T07:07:15;41.20;;;23.38;;
59512;SDS011;45330;51.634;5.562;2022-11-15T07:09:40;39.35;;;22.60;;
59512;SDS011;45330;51.634;5.562;2022-11-15T07:12:05;44.67;;;23.45;;
59512;SDS011;45330;51.634;5.562;2022-11-15T07:14:31;42.83;;;22.55;;
59512;SDS011;45330;51.634;5.562;2022-11-15T07:16:56;40.22;;;22.30;;
59512;SDS011;45330;51.634;5.562;2022-11-15T07:19:21;39.47;;;21.90;;
59512;SDS011;45330;51.634;5.562;2022-11-15T07:21:47;40.40;;;22.75;;
59512;SDS011;45330;51.634;5.562;2022-11-15T07:24:12;40.15;;;21.73;;
59512;SDS011;45330;51.634;5.562;2022-11-15T07:26:38;39.50;;;21.85;;
59512;SDS011;45330;51.634;5.562;2022-11-15T07:29:03;36.10;;;21.33;;
59512;SDS011;45330;51.634;5.562;2022-11-15T07:31:28;38.75;;;19.83;;
59512;SDS011;45330;51.634;5.562;2022-11-15T07:33:54;38.80;;;21.63;;
59512;SDS011;45330;51.634;5.562;2022-11-15T07:36:19;34.90;;;20.38;;
59512;SDS011;45330;51.634;5.562;2022-11-15T07:38:45;34.13;;;19.02;;
59512;SDS011;45330;51.634;5.562;2022-11-15T07:41:10;37.95;;;19.75;;
59512;SDS011;45330;51.634;5.562;2022-11-15T07:43:35;46.05;;;21.38;;
59512;SDS011;45330;51.634;5.562;2022-11-15T07:46:07;35.75;;;19.52;;
59512;SDS011;45330;51.634;5.562;2022-11-15T07:48:34;35.10;;;19.23;;
59512;SDS011;45330;51.634;5.562;2022-11-15T07:51:00;34.83;;;20.60;;
59512;SDS011;45330;51.634;5.562;2022-11-15T07:53:26;37.13;;;19.70;;
59512;SDS011;45330;51.634;5.562;2022-11-15T07:55:51;40.17;;;19.67;;
59512;SDS011;45330;51.634;5.562;2022-11-15T07:58:18;34.90;;;19.45;;
59512;SDS011;45330;51.634;5.562;2022-11-15T08:00:44;35.10;;;20.08;;
59512;SDS011;45330;51.634;5.562;2022-11-15T08:03:14;34.13;;;18.70;;
59512;SDS011;45330;51.634;5.562;2022-11-15T08:05:40;34.95;;;18.60;;
59512;SDS011;45330;51.634;5.562;2022-11-15T08:08:08;35.47;;;18.23;;
59512;SDS011;45330;51.634;5.562;2022-11-15T08:10:36;33.90;;;19.73;;
59512;SDS011;45330;51.634;5.562;2022-11-15T08:13:03;34.95;;;19.27;;
59512;SDS011;45330;51.634;5.562;2022-11-15T08:15:31;33.58;;;19.02;;
59512;SDS011;45330;51.634;5.562;2022-11-15T08:17:58;33.38;;;17.58;;
59512;SDS011;45330;51.634;5.562;2022-11-15T08:20:26;33.80;;;18.77;;
59512;SDS011;45330;51.634;5.562;2022-11-15T08:22:55;30.63;;;17.17;;
59512;SDS011;45330;51.634;5.562;2022-11-15T08:25:21;32.25;;;17.42;;
59512;SDS011;45330;51.634;5.562;2022-11-15T08:27:47;29.73;;;16.73;;
59512;SDS011;45330;51.634;5.562;2022-11-15T08:30:12;33.53;;;17.17;;
59512;SDS011;45330;51.634;5.562;2022-11-15T08:32:40;31.35;;;17.00;;
59512;SDS011;45330;51.634;5.562;2022-11-15T08:35:06;29.83;;;15.32;;
59512;SDS011;45330;51.634;5.562;2022-11-15T08:37:32;30.42;;;15.63;;
59512;SDS011;45330;51.634;5.562;2022-11-15T08:39:57;28.42;;;14.68;;
59512;SDS011;45330;51.634;5.562;2022-11-15T08:42:22;25.98;;;13.40;;
59512;SDS011;45330;51.634;5.562;2022-11-15T08:44:48;27.20;;;13.85;;
59512;SDS011;45330;51.634;5.562;2022-11-15T08:47:13;26.63;;;13.38;;
59512;SDS011;45330;51.634;5.562;2022-11-15T08:49:39;29.42;;;13.40;;
59512;SDS011;45330;51.634;5.562;2022-11-15T08:52:04;28.08;;;13.45;;
59512;SDS011;45330;51.634;5.562;2022-11-15T08:54:29;25.95;;;12.35;;
59512;SDS011;45330;51.634;5.562;2022-11-15T08:56:55;24.23;;;12.32;;
59512;SDS011;45330;51.634;5.562;2022-11-15T08:59:20;23.63;;;12.25;;
59512;SDS011;45330;51.634;5.562;2022-11-15T09:01:46;23.33;;;11.20;;
59512;SDS011;45330;51.634;5.562;2022-11-15T09:04:11;22.33;;;11.15;;
59512;SDS011;45330;51.634;5.562;2022-11-15T09:06:36;23.63;;;11.07;;
59512;SDS011;45330;51.634;5.562;2022-11-15T09:09:02;22.48;;;10.02;;
59512;SDS011;45330;51.634;5.562;2022-11-15T09:11:28;20.92;;;9.35;;
59512;SDS011;45330;51.634;5.562;2022-11-15T09:13:54;20.38;;;9.00;;
59512;SDS011;45330;51.634;5.562;2022-11-15T09:16:19;23.15;;;9.50;;
59512;SDS011;45330;51.634;5.562;2022-11-15T09:18:44;20.85;;;9.50;;
59512;SDS011;45330;51.634;5.562;2022-11-15T09:21:10;21.08;;;9.35;;
59512;SDS011;45330;51.634;5.562;2022-11-15T09:23:35;20.25;;;8.82;;
59512;SDS011;45330;51.634;5.562;2022-11-15T09:26:02;21.25;;;9.27;;
59512;SDS011;45330;51.634;5.562;2022-11-15T09:28:29;20.27;;;8.82;;
59512;SDS011;45330;51.634;5.562;2022-11-15T09:30:56;18.35;;;8.57;;
59512;SDS011;45330;51.634;5.562;2022-11-15T09:33:25;20.00;;;8.70;;
59512;SDS011;45330;51.634;5.562;2022-11-15T09:35:51;20.80;;;9.55;;
59512;SDS011;45330;51.634;5.562;2022-11-15T09:38:17;20.27;;;9.18;;
59512;SDS011;45330;51.634;5.562;2022-11-15T09:40:43;20.02;;;9.60;;
59512;SDS011;45330;51.634;5.562;2022-11-15T09:51:27;18.92;;;7.75;;
59512;SDS011;45330;51.634;5.562;2022-11-15T09:56:26;15.07;;;5.93;;
59512;SDS011;45330;51.634;5.562;2022-11-15T10:01:44;16.38;;;6.07;;
59512;SDS011;45330;51.634;5.562;2022-11-15T10:04:25;14.65;;;5.70;;
59512;SDS011;45330;51.634;5.562;2022-11-15T10:06:56;14.13;;;5.05;;
59512;SDS011;45330;51.634;5.562;2022-11-15T10:12:06;14.70;;;4.60;;
59512;SDS011;45330;51.634;5.562;2022-11-15T10:14:33;11.73;;;4.43;;
59512;SDS011;45330;51.634;5.562;2022-11-15T10:20:00;15.45;;;4.70;;
59512;SDS011;45330;51.634;5.562;2022-11-15T10:22:40;11.77;;;3.88;;
59512;SDS011;45330;51.634;5.562;2022-11-15T10:27:38;9.10;;;3.60;;
59512;SDS011;45330;51.634;5.562;2022-11-15T10:30:15;13.57;;;4.65;;
59512;SDS011;45330;51.634;5.562;2022-11-15T10:32:42;10.20;;;3.35;;
59512;SDS011;45330;51.634;5.562;2022-11-15T10:35:20;8.85;;;2.65;;
59512;SDS011;45330;51.634;5.562;2022-11-15T10:37:50;11.20;;;2.72;;
59512;SDS011;45330;51.634;5.562;2022-11-15T10:40:20;8.75;;;2.53;;
59512;SDS011;45330;51.634;5.562;2022-11-15T10:42:48;10.50;;;2.67;;
59512;SDS011;45330;51.634;5.562;2022-11-15T10:45:29;7.57;;;2.38;;
59512;SDS011;45330;51.634;5.562;2022-11-15T10:48:18;4.90;;;1.98;;
59512;SDS011;45330;51.634;5.562;2022-11-15T10:50:46;5.80;;;2.20;;
59512;SDS011;45330;51.634;5.562;2022-11-15T10:55:41;9.23;;;2.20;;
59512;SDS011;45330;51.634;5.562;2022-11-15T11:01:12;5.25;;;1.90;;
59512;SDS011;45330;51.634;5.562;2022-11-15T11:06:26;5.65;;;2.08;;
59512;SDS011;45330;51.634;5.562;2022-11-15T11:08:57;7.75;;;2.10;;
59512;SDS011;45330;51.634;5.562;2022-11-15T11:11:22;8.43;;;2.17;;
59512;SDS011;45330;51.634;5.562;2022-11-15T11:13:48;5.97;;;1.90;;
59512;SDS011;45330;51.634;5.562;2022-11-15T11:21:30;8.43;;;2.20;;
59512;SDS011;45330;51.634;5.562;2022-11-15T11:27:16;9.90;;;2.10;;
59512;SDS011;45330;51.634;5.562;2022-11-15T11:30:03;8.30;;;2.20;;
59512;SDS011;45330;51.634;5.562;2022-11-15T11:38:32;11.27;;;2.55;;
59512;SDS011;45330;51.634;5.562;2022-11-15T11:41:20;8.85;;;2.35;;
59512;SDS011;45330;51.634;5.562;2022-11-15T11:54:51;11.52;;;2.42;;
59512;SDS011;45330;51.634;5.562;2022-11-15T12:00:17;8.77;;;2.20;;
59512;SDS011;45330;51.634;5.562;2022-11-15T12:05:43;12.63;;;2.60;;
59512;SDS011;45330;51.634;5.562;2022-11-15T12:11:13;5.88;;;2.17;;
59512;SDS011;45330;51.634;5.562;2022-11-15T12:13:42;5.28;;;2.08;;
59512;SDS011;45330;51.634;5.562;2022-11-15T12:16:17;7.88;;;2.17;;
59512;SDS011;45330;51.634;5.562;2022-11-15T12:18:51;7.90;;;2.10;;
59512;SDS011;45330;51.634;5.562;2022-11-15T12:21:25;7.72;;;2.10;;
59512;SDS011;45330;51.634;5.562;2022-11-15T12:23:54;6.63;;;2.30;;
59512;SDS011;45330;51.634;5.562;2022-11-15T12:26:26;8.13;;;2.22;;
59512;SDS011;45330;51.634;5.562;2022-11-15T12:29:02;7.03;;;2.22;;
59512;SDS011;45330;51.634;5.562;2022-11-15T12:34:00;10.23;;;2.35;;
59512;SDS011;45330;51.634;5.562;2022-11-15T12:39:04;9.80;;;1.83;;
59512;SDS011;45330;51.634;5.562;2022-11-15T12:41:31;6.07;;;2.22;;
59512;SDS011;45330;51.634;5.562;2022-11-15T12:44:55;7.68;;;2.22;;
59512;SDS011;45330;51.634;5.562;2022-11-15T12:52:03;7.10;;;2.00;;
59512;SDS011;45330;51.634;5.562;2022-11-15T13:02:42;7.32;;;2.05;;
59512;SDS011;45330;51.634;5.562;2022-11-15T13:17:39;7.55;;;2.05;;
59512;SDS011;45330;51.634;5.562;2022-11-15T13:22:39;10.23;;;2.20;;
59512;SDS011;45330;51.634;5.562;2022-11-15T13:25:26;7.90;;;2.10;;
59512;SDS011;45330;51.634;5.562;2022-11-15T13:28:01;8.73;;;2.60;;
59512;SDS011;45330;51.634;5.562;2022-11-15T13:30:35;8.50;;;2.55;;
59512;SDS011;45330;51.634;5.562;2022-11-15T13:33:07;12.48;;;2.33;;
59512;SDS011;45330;51.634;5.562;2022-11-15T13:35:38;7.05;;;1.80;;
59512;SDS011;45330;51.634;5.562;2022-11-15T13:38:05;8.43;;;1.90;;
59512;SDS011;45330;51.634;5.562;2022-11-15T13:40:34;5.15;;;1.83;;
59512;SDS011;45330;51.634;5.562;2022-11-15T13:43:43;8.10;;;1.90;;
59512;SDS011;45330;51.634;5.562;2022-11-15T13:46:06;6.72;;;1.80;;
59512;SDS011;45330;51.634;5.562;2022-11-15T13:48:31;8.13;;;1.75;;
59512;SDS011;45330;51.634;5.562;2022-11-15T13:50:58;6.25;;;1.55;;
59512;SDS011;45330;51.634;5.562;2022-11-15T13:53:25;8.70;;;2.03;;
59512;SDS011;45330;51.634;5.562;2022-11-15T13:55:51;9.40;;;1.70;;
59512;SDS011;45330;51.634;5.562;2022-11-15T13:58:20;7.10;;;1.73;;
59512;SDS011;45330;51.634;5.562;2022-11-15T14:00:45;7.28;;;1.80;;
59512;SDS011;45330;51.634;5.562;2022-11-15T14:03:15;6.72;;;2.00;;
59512;SDS011;45330;51.634;5.562;2022-11-15T14:08:38;8.50;;;1.80;;
59512;SDS011;45330;51.634;5.562;2022-11-15T14:11:15;7.25;;;1.90;;
59512;SDS011;45330;51.634;5.562;2022-11-15T14:13:58;6.70;;;2.15;;
59512;SDS011;45330;51.634;5.562;2022-11-15T14:16:38;6.50;;;1.85;;
59512;SDS011;45330;51.634;5.562;2022-11-15T14:19:05;8.00;;;1.85;;
59512;SDS011;45330;51.634;5.562;2022-11-15T14:21:34;11.43;;;2.30;;
59512;SDS011;45330;51.634;5.562;2022-11-15T14:24:17;6.65;;;2.17;;
59512;SDS011;45330;51.634;5.562;2022-11-15T14:26:44;4.13;;;1.92;;
59512;SDS011;45330;51.634;5.562;2022-11-15T14:29:26;8.82;;;2.15;;
59512;SDS011;45330;51.634;5.562;2022-11-15T14:31:53;9.07;;;2.38;;
59512;SDS011;45330;51.634;5.562;2022-11-15T14:34:31;6.50;;;2.00;;
59512;SDS011;45330;51.634;5.562;2022-11-15T14:36:57;6.97;;;1.90;;
59512;SDS011;45330;51.634;5.562;2022-11-15T14:39:22;7.25;;;1.90;;
59512;SDS011;45330;51.634;5.562;2022-11-15T14:41:50;5.78;;;2.20;;
59512;SDS011;45330;51.634;5.562;2022-11-15T14:44:15;7.13;;;1.95;;
59512;SDS011;45330;51.634;5.562;2022-11-15T14:46:43;7.75;;;1.80;;
59512;SDS011;45330;51.634;5.562;2022-11-15T14:49:09;6.88;;;2.08;;
59512;SDS011;45330;51.634;5.562;2022-11-15T14:51:34;10.77;;;2.00;;
59512;SDS011;45330;51.634;5.562;2022-11-15T14:54:00;6.50;;;2.10;;
59512;SDS011;45330;51.634;5.562;2022-11-15T14:56:27;4.80;;;1.90;;
59512;SDS011;45330;51.634;5.562;2022-11-15T14:58:52;13.68;;;2.40;;
59512;SDS011;45330;51.634;5.562;2022-11-15T15:01:25;8.38;;;2.10;;
59512;SDS011;45330;51.634;5.562;2022-11-15T15:03:52;8.95;;;2.20;;
59512;SDS011;45330;51.634;5.562;2022-11-15T15:06:20;10.55;;;1.95;;
59512;SDS011;45330;51.634;5.562;2022-11-15T15:08:46;9.30;;;2.00;;
59512;SDS011;45330;51.634;5.562;2022-11-15T15:11:14;5.13;;;1.80;;
59512;SDS011;45330;51.634;5.562;2022-11-15T15:13:43;5.88;;;1.80;;
59512;SDS011;45330;51.634;5.562;2022-11-15T15:16:09;10.27;;;2.25;;
59512;SDS011;45330;51.634;5.562;2022-11-15T15:18:34;9.15;;;1.90;;
59512;SDS011;45330;51.634;5.562;2022-11-15T15:20:59;7.95;;;1.98;;
59512;SDS011;45330;51.634;5.562;2022-11-15T15:23:28;9.68;;;2.30;;
59512;SDS011;45330;51.634;5.562;2022-11-15T15:25:56;6.25;;;2.05;;
59512;SDS011;45330;51.634;5.562;2022-11-15T15:28:22;5.15;;;1.88;;
59512;SDS011;45330;51.634;5.562;2022-11-15T15:30:47;8.30;;;2.08;;
59512;SDS011;45330;51.634;5.562;2022-11-15T15:33:14;4.57;;;1.70;;
59512;SDS011;45330;51.634;5.562;2022-11-15T15:35:39;14.23;;;2.25;;
59512;SDS011;45330;51.634;5.562;2022-11-15T15:38:05;7.63;;;1.80;;
59512;SDS011;45330;51.634;5.562;2022-11-15T15:40:31;9.32;;;1.70;;
59512;SDS011;45330;51.634;5.562;2022-11-15T15:42:58;7.22;;;1.70;;
59512;SDS011;45330;51.634;5.562;2022-11-15T15:45:24;6.82;;;1.88;;
59512;SDS011;45330;51.634;5.562;2022-11-15T15:47:50;11.32;;;2.03;;
59512;SDS011;45330;51.634;5.562;2022-11-15T15:50:24;9.32;;;2.15;;
59512;SDS011;45330;51.634;5.562;2022-11-15T15:52:52;6.70;;;1.73;;
59512;SDS011;45330;51.634;5.562;2022-11-15T15:55:19;7.35;;;1.70;;
59512;SDS011;45330;51.634;5.562;2022-11-15T15:57:45;9.82;;;1.90;;
59512;SDS011;45330;51.634;5.562;2022-11-15T16:00:11;6.40;;;1.75;;
59512;SDS011;45330;51.634;5.562;2022-11-15T16:02:37;7.30;;;1.80;;
59512;SDS011;45330;51.634;5.562;2022-11-15T16:05:03;7.57;;;1.90;;
59512;SDS011;45330;51.634;5.562;2022-11-15T16:07:29;5.90;;;2.10;;
59512;SDS011;45330;51.634;5.562;2022-11-15T16:09:55;8.88;;;1.92;;
59512;SDS011;45330;51.634;5.562;2022-11-15T16:14:58;5.88;;;1.90;;
59512;SDS011;45330;51.634;5.562;2022-11-15T16:17:25;5.97;;;1.90;;
59512;SDS011;45330;51.634;5.562;2022-11-15T16:19:53;7.80;;;2.42;;
59512;SDS011;45330;51.634;5.562;2022-11-15T16:22:19;8.82;;;2.15;;
59512;SDS011;45330;51.634;5.562;2022-11-15T16:24:45;10.45;;;2.20;;
59512;SDS011;45330;51.634;5.562;2022-11-15T16:27:14;8.38;;;2.20;;
59512;SDS011;45330;51.634;5.562;2022-11-15T16:29:44;11.35;;;2.00;;
59512;SDS011;45330;51.634;5.562;2022-11-15T16:32:13;9.00;;;2.50;;
59512;SDS011;45330;51.634;5.562;2022-11-15T16:34:39;10.32;;;2.50;;
59512;SDS011;45330;51.634;5.562;2022-11-15T16:37:05;8.32;;;2.30;;
59512;SDS011;45330;51.634;5.562;2022-11-15T16:39:38;6.78;;;2.28;;
59512;SDS011;45330;51.634;5.562;2022-11-15T16:42:04;11.43;;;2.75;;
59512;SDS011;45330;51.634;5.562;2022-11-15T16:44:29;10.52;;;2.53;;
59512;SDS011;45330;51.634;5.562;2022-11-15T16:46:55;6.55;;;2.55;;
59512;SDS011;45330;51.634;5.562;2022-11-15T16:49:20;12.00;;;2.70;;
59512;SDS011;45330;51.634;5.562;2022-11-15T16:51:46;6.70;;;2.60;;
59512;SDS011;45330;51.634;5.562;2022-11-15T16:54:12;8.70;;;2.67;;
59512;SDS011;45330;51.634;5.562;2022-11-15T16:56:38;9.65;;;2.88;;